Time;durP1;ratioP1;P1;durP2;ratioP2;P2;SDS_P1;SDS_P2;PMS_P1;PMS_P2;Temp;Humidity;BMP_temperature;BMP_pressure;BME280_temperature;BME280_humidity;BME280_pressure;Samples;Min_cycle;Max_cycle;Signal;HPM_P1;HPM_P2
2021/08/15 00:00:37;;;;;;;3.07;2.87;;;;;;;22.90;91.72;97609.34;4956241;28;20653;-61
2021/08/15 00:03:04;;;;;;;2.73;2.53;;;;;;;22.86;91.60;97594.69;4995145;23;20235;-66
2021/08/15 00:05:31;;;;;;;2.63;2.43;;;;;;;22.92;91.71;97601.69;4983156;28;20554;-69
2021/08/15 00:07:57;;;;;;;2.70;2.50;;;;;;;22.92;91.59;97602.53;4995532;28;20288;-67
2021/08/15 00:10:24;;;;;;;3.10;2.90;;;;;;;22.92;91.27;97601.69;4996358;28;20642;-66
2021/08/15 00:12:50;;;;;;;2.80;2.60;;;;;;;22.91;91.75;97603.38;4984118;28;20657;-67
2021/08/15 00:15:17;;;;;;;3.10;2.90;;;;;;;22.92;91.37;97602.53;4989057;28;20223;-64
2021/08/15 00:17:44;;;;;;;3.30;3.00;;;;;;;22.92;91.65;97599.97;4989986;28;20215;-67
2021/08/15 00:20:11;;;;;;;2.63;2.43;;;;;;;22.93;91.78;97611.09;4989980;28;20203;-67
2021/08/15 00:22:42;;;;;;;2.80;2.60;;;;;;;22.92;91.62;97597.41;4990194;28;20688;-66
2021/08/15 00:25:10;;;;;;;2.80;2.60;;;;;;;22.88;91.75;97589.63;4986742;28;20238;-68
2021/08/15 00:27:36;;;;;;;3.07;2.77;;;;;;;22.93;91.59;97604.31;4988075;28;20258;-66
2021/08/15 00:30:03;;;;;;;3.20;2.60;;;;;;;22.93;91.49;97595.72;4989813;28;21001;-68
2021/08/15 00:32:30;;;;;;;2.90;2.60;;;;;;;22.94;91.68;97597.47;4989562;28;20769;-68
2021/08/15 00:34:57;;;;;;;3.00;2.77;;;;;;;22.93;91.68;97594.03;4984977;28;20207;-67
2021/08/15 00:37:23;;;;;;;3.93;2.80;;;;;;;22.93;91.81;97583.78;4985123;28;20246;-68
2021/08/15 00:39:50;;;;;;;3.40;3.10;;;;;;;22.94;91.63;97589.75;4989614;28;20249;-67
2021/08/15 00:42:16;;;;;;;2.80;2.60;;;;;;;22.94;91.55;97587.19;4988542;28;20273;-67
2021/08/15 00:44:43;;;;;;;2.70;2.50;;;;;;;22.94;91.69;97587.19;4989762;28;20301;-67
2021/08/15 00:47:10;;;;;;;3.10;2.80;;;;;;;22.93;91.57;97588.91;4989486;28;20286;-69
2021/08/15 00:49:37;;;;;;;4.00;2.60;;;;;;;22.94;91.55;97584.63;4988191;28;20752;-67
2021/08/15 00:52:05;;;;;;;2.87;2.67;;;;;;;22.93;91.56;97586.34;4989025;28;20306;-66
2021/08/15 00:54:32;;;;;;;2.90;2.70;;;;;;;22.94;91.65;97584.63;4988892;28;20282;-67
2021/08/15 00:56:59;;;;;;;2.87;2.67;;;;;;;22.94;91.60;97585.53;4986743;28;20226;-68
2021/08/15 00:59:26;;;;;;;3.17;2.93;;;;;;;22.89;91.54;97576.00;4986975;28;20237;-64
2021/08/15 01:01:53;;;;;;;2.70;2.50;;;;;;;22.94;91.65;97584.63;4976034;28;20960;-67
2021/08/15 01:04:21;;;;;;;2.93;2.70;;;;;;;22.93;91.73;97568.41;4980831;28;20203;-67
2021/08/15 01:06:48;;;;;;;4.17;2.80;;;;;;;22.82;91.65;97557.03;4986603;28;20290;-67
2021/08/15 01:09:15;;;;;;;4.87;2.97;;;;;;;22.95;91.49;97573.59;4986693;28;20667;-64
2021/08/15 01:11:41;;;;;;;2.80;2.60;;;;;;;22.94;91.72;97572.69;4985253;28;20296;-67
2021/08/15 01:14:08;;;;;;;2.80;2.60;;;;;;;22.94;91.65;97567.56;4988105;28;20261;-67
2021/08/15 01:16:38;;;;;;;3.10;2.80;;;;;;;22.94;91.69;97570.13;4988544;28;20652;-68
2021/08/15 01:19:06;;;;;;;3.00;2.80;;;;;;;22.87;91.67;97560.56;4987282;28;20570;-67
2021/08/15 01:21:33;;;;;;;3.20;2.90;;;;;;;22.90;91.62;97570.91;4987095;28;20205;-68
2021/08/15 01:23:59;;;;;;;2.73;2.53;;;;;;;22.86;91.83;97561.38;4988699;28;20290;-67
2021/08/15 01:26:26;;;;;;;2.90;2.70;;;;;;;22.90;92.30;97567.47;4987220;28;20281;-68
2021/08/15 01:28:52;;;;;;;2.83;2.63;;;;;;;22.89;91.97;97560.63;4982268;28;20302;-66
2021/08/15 01:31:21;;;;;;;3.00;2.80;;;;;;;22.89;92.07;97558.06;4986872;28;20723;-68
2021/08/15 01:33:47;;;;;;;2.97;2.67;;;;;;;22.89;92.01;97555.50;4988759;28;20258;-65
2021/08/15 01:36:16;;;;;;;2.83;2.63;;;;;;;22.89;92.30;97563.19;4988408;28;20329;-65
2021/08/15 01:38:42;;;;;;;3.13;2.90;;;;;;;22.90;92.15;97562.34;4981919;28;20206;-68
2021/08/15 01:41:09;;;;;;;2.77;2.57;;;;;;;22.90;92.21;97559.78;4984151;28;20241;-69
2021/08/15 01:43:52;;;;;;;3.03;2.83;;;;;;;22.90;92.25;97557.22;4988500;28;20227;-67
2021/08/15 01:46:20;;;;;;;3.10;2.80;;;;;;;22.90;92.22;97550.41;4988231;28;20285;-66
2021/08/15 01:48:47;;;;;;;2.80;2.60;;;;;;;22.91;92.21;97551.25;4988043;28;20203;-67
2021/08/15 01:51:17;;;;;;;3.40;2.67;;;;;;;22.91;92.06;97551.25;4987936;28;20843;-67
2021/08/15 01:53:44;;;;;;;2.70;2.50;;;;;;;22.91;92.13;97549.56;4974548;28;20339;-67
2021/08/15 01:56:11;;;;;;;4.10;2.80;;;;;;;22.91;91.86;97554.69;4988407;28;20277;-67
2021/08/15 01:58:37;;;;;;;2.77;2.57;;;;;;;22.92;91.99;97558.13;4988020;28;20305;-66
2021/08/15 02:01:04;;;;;;;2.97;2.77;;;;;;;22.92;92.12;97548.72;4987415;28;20210;-67
2021/08/15 02:03:31;;;;;;;3.30;2.73;;;;;;;22.92;92.12;97553.84;4988162;28;20230;-64
2021/08/15 02:05:58;;;;;;;3.20;2.90;;;;;;;22.93;92.01;97554.72;4987873;28;20289;-68
2021/08/15 02:08:24;;;;;;;3.30;3.00;;;;;;;22.92;92.38;97556.41;4987510;28;20686;-66
2021/08/15 02:10:51;;;;;;;3.17;2.87;;;;;;;22.93;92.23;97559.84;4987404;28;20730;-66
2021/08/15 02:13:17;;;;;;;3.47;2.87;;;;;;;22.92;92.10;97558.97;4983002;28;20227;-66
2021/08/15 02:15:44;;;;;;;2.77;2.57;;;;;;;22.94;91.99;97553.88;4986780;28;20230;-67
2021/08/15 02:18:11;;;;;;;3.27;3.00;;;;;;;22.93;92.06;97555.59;4984028;28;20294;-67
2021/08/15 02:20:37;;;;;;;4.33;3.00;;;;;;;22.93;92.13;97549.59;4967661;28;20625;-67
2021/08/15 02:23:04;;;;;;;2.83;2.63;;;;;;;22.94;92.07;97546.19;4988180;28;20323;-68
2021/08/15 02:25:30;;;;;;;2.60;2.40;;;;;;;22.94;92.08;97548.75;4987961;28;20249;-70
2021/08/15 02:27:57;;;;;;;4.37;3.00;;;;;;;22.94;92.16;97541.06;4985365;28;20680;-66
2021/08/15 02:30:24;;;;;;;3.03;2.83;;;;;;;22.94;92.08;97548.75;4981741;28;20230;-67
2021/08/15 02:32:51;;;;;;;3.00;2.80;;;;;;;22.94;92.05;97543.63;4985201;28;20606;-67
2021/08/15 02:35:18;;;;;;;3.10;2.83;;;;;;;22.94;92.06;97535.94;4980795;28;20751;-65
2021/08/15 02:37:49;;;;;;;2.77;2.57;;;;;;;22.90;92.05;97531.59;4985369;28;20223;-70
2021/08/15 02:40:17;;;;;;;3.30;3.00;;;;;;;22.94;92.09;97531.69;4978221;28;20269;-67
2021/08/15 02:42:44;;;;;;;2.90;2.70;;;;;;;22.94;92.14;97531.69;4987093;28;20262;-67
2021/08/15 02:45:13;;;;;;;3.10;2.90;;;;;;;22.94;92.09;97534.25;4987366;28;20293;-68
2021/08/15 02:47:39;;;;;;;3.20;2.90;;;;;;;22.94;92.17;97530.81;4986933;28;20246;-67
2021/08/15 02:50:06;;;;;;;3.10;2.90;;;;;;;22.94;92.06;97535.94;4986975;28;20245;-67
2021/08/15 02:52:33;;;;;;;3.07;2.87;;;;;;;22.95;91.66;97532.56;4987476;28;20711;-67
2021/08/15 02:55:02;;;;;;;2.90;2.70;;;;;;;22.94;92.16;97523.13;4987446;28;20207;-68
2021/08/15 02:57:29;;;;;;;4.90;2.80;;;;;;;22.95;92.07;97520.59;4987406;28;20313;-67
2021/08/15 02:59:55;;;;;;;3.10;2.80;;;;;;;22.94;91.97;97529.13;4984339;28;20405;-67
2021/08/15 03:02:22;;;;;;;3.07;2.87;;;;;;;22.95;92.13;97523.16;4987173;28;20241;-68
2021/08/15 03:04:49;;;;;;;3.13;2.93;;;;;;;22.95;92.23;97514.63;4985926;28;20584;-67
2021/08/15 03:07:16;;;;;;;2.90;2.70;;;;;;;22.94;92.26;97508.63;4987259;28;20298;-66
2021/08/15 03:09:43;;;;;;;3.03;2.73;;;;;;;22.91;92.18;97497.44;4987010;28;20242;-68
2021/08/15 03:12:10;;;;;;;3.17;2.90;;;;;;;22.96;92.12;97508.66;4985241;28;20317;-67
2021/08/15 03:14:39;;;;;;;2.90;2.70;;;;;;;22.93;91.99;97512.03;4986355;28;20334;-67
2021/08/15 03:17:06;;;;;;;3.17;2.87;;;;;;;22.93;92.19;97506.03;4986745;28;20719;-66
2021/08/15 03:19:33;;;;;;;2.83;2.60;;;;;;;22.92;92.15;97509.44;4979748;28;20235;-67
2021/08/15 03:22:00;;;;;;;2.83;2.63;;;;;;;22.91;92.38;97513.69;4985651;28;20319;-67
2021/08/15 03:24:27;;;;;;;3.10;2.80;;;;;;;22.90;92.37;97509.41;4987293;28;20617;-67
2021/08/15 03:26:53;;;;;;;2.83;2.63;;;;;;;22.89;92.38;97502.53;4984526;28;20639;-67
2021/08/15 03:29:20;;;;;;;2.93;2.73;;;;;;;22.89;92.51;97505.09;4990142;28;20286;-66
2021/08/15 03:31:46;;;;;;;3.00;2.80;;;;;;;22.88;92.52;97503.34;4990491;28;20262;-68
2021/08/15 03:34:15;;;;;;;3.27;2.97;;;;;;;22.89;92.56;97499.97;4990839;28;20289;-68
2021/08/15 03:36:42;;;;;;;2.87;2.67;;;;;;;22.89;92.51;97496.56;4990795;28;20702;-69
2021/08/15 03:39:08;;;;;;;3.13;2.93;;;;;;;22.90;92.63;97501.72;4986641;28;20290;-68
2021/08/15 03:41:36;;;;;;;3.07;2.87;;;;;;;22.91;92.39;97502.56;4983508;28;20258;-67
2021/08/15 03:44:02;;;;;;;2.97;2.77;;;;;;;22.91;92.72;97492.31;4990597;28;20580;-67
2021/08/15 03:46:29;;;;;;;2.93;2.73;;;;;;;22.91;92.62;97494.88;4990578;28;20234;-68
2021/08/15 03:48:56;;;;;;;3.50;2.90;;;;;;;22.91;92.60;97497.44;4981145;28;20234;-67
2021/08/15 03:51:22;;;;;;;3.00;2.80;;;;;;;22.91;92.85;97500.88;4972813;28;20203;-66
2021/08/15 03:53:49;;;;;;;3.50;3.20;;;;;;;22.92;92.28;97494.91;4990460;28;20254;-67
2021/08/15 03:56:15;;;;;;;3.10;2.90;;;;;;;22.92;92.53;97500.03;4985769;28;20317;-64
2021/08/15 03:58:42;;;;;;;3.10;2.90;;;;;;;22.92;92.52;97501.75;4990662;28;20720;-68
2021/08/15 04:01:08;;;;;;;3.13;2.93;;;;;;;22.93;92.88;97491.53;4985435;28;20282;-65
2021/08/15 04:03:36;;;;;;;3.23;2.97;;;;;;;22.93;92.56;97503.47;4990154;28;20242;-67
2021/08/15 04:06:08;;;;;;;3.00;2.80;;;;;;;22.72;92.50;97462.84;4987158;28;20269;-67
2021/08/15 04:08:35;;;;;;;3.10;2.90;;;;;;;22.93;92.49;97500.91;4988797;28;20298;-67
2021/08/15 04:11:02;;;;;;;2.97;2.77;;;;;;;22.93;92.66;97498.34;4989666;28;20245;-67
2021/08/15 04:13:28;;;;;;;3.23;2.93;;;;;;;22.93;92.07;97503.47;4989157;28;20668;-67
2021/08/15 04:15:55;;;;;;;2.83;2.63;;;;;;;22.94;92.67;97505.19;4990032;28;20293;-68
2021/08/15 04:18:21;;;;;;;4.47;2.77;;;;;;;22.93;92.51;97506.91;4990643;28;20294;-67
2021/08/15 04:20:48;;;;;;;3.17;2.97;;;;;;;22.93;92.55;97514.59;4987874;28;20294;-66
2021/08/15 04:23:15;;;;;;;2.83;2.63;;;;;;;22.94;92.57;97507.75;4988298;28;20678;-68
2021/08/15 04:25:42;;;;;;;3.00;2.80;;;;;;;22.93;92.54;97501.78;4989917;28;20254;-68
2021/08/15 04:28:08;;;;;;;4.87;2.87;;;;;;;22.94;92.95;97503.50;4989656;28;20249;-65
2021/08/15 04:30:35;;;;;;;2.97;2.77;;;;;;;22.95;92.57;97512.06;4989208;28;20250;-67
2021/08/15 04:33:01;;;;;;;2.93;2.73;;;;;;;22.95;92.98;97506.94;4989080;28;20227;-68
2021/08/15 04:35:29;;;;;;;3.13;2.87;;;;;;;22.94;92.51;97515.44;4989747;28;20301;-64
2021/08/15 04:37:57;;;;;;;3.27;2.80;;;;;;;22.94;92.48;97503.50;4989309;28;20653;-67
2021/08/15 04:40:23;;;;;;;3.17;2.97;;;;;;;22.94;92.50;97513.75;4984066;28;20299;-65
2021/08/15 04:42:50;;;;;;;3.57;3.00;;;;;;;22.94;92.47;97506.06;4983042;28;20341;-68
2021/08/15 04:45:16;;;;;;;3.30;3.00;;;;;;;22.95;92.56;97506.94;4989297;28;20301;-68
2021/08/15 04:47:43;;;;;;;3.00;2.80;;;;;;;22.94;92.93;97508.63;4989770;28;20604;-68
2021/08/15 04:50:09;;;;;;;3.10;2.90;;;;;;;22.94;92.39;97507.75;4988380;28;20675;-66
2021/08/15 04:52:36;;;;;;;2.70;2.50;;;;;;;22.95;92.50;97509.50;4989351;28;20683;-68
2021/08/15 04:55:03;;;;;;;2.90;2.70;;;;;;;22.95;92.53;97520.59;4989557;28;20203;-68
2021/08/15 04:57:29;;;;;;;3.07;2.87;;;;;;;22.94;92.51;97518.88;4985697;28;20269;-67
2021/08/15 04:59:56;;;;;;;4.90;2.77;;;;;;;22.95;92.50;97514.63;4988421;28;20313;-68
2021/08/15 05:02:22;;;;;;;2.70;2.50;;;;;;;22.95;92.72;97518.03;4987258;28;20353;-67
2021/08/15 05:04:49;;;;;;;3.37;3.07;;;;;;;22.95;92.48;97515.47;4989041;28;20338;-67
2021/08/15 05:07:16;;;;;;;2.83;2.63;;;;;;;22.95;92.57;97519.75;4988829;28;20794;-67
2021/08/15 05:09:42;;;;;;;2.83;2.63;;;;;;;22.95;92.52;97519.75;4988810;28;20668;-68
2021/08/15 05:12:09;;;;;;;3.33;3.00;;;;;;;22.95;92.55;97517.19;4985407;28;20230;-67
2021/08/15 05:14:35;;;;;;;2.90;2.70;;;;;;;22.94;92.62;97516.31;4989208;28;20482;-67
2021/08/15 05:17:02;;;;;;;3.67;3.10;;;;;;;22.94;92.54;97507.75;4988890;28;20587;-67
2021/08/15 05:19:31;;;;;;;3.23;3.00;;;;;;;22.92;92.54;97515.41;4988365;28;20226;-68
2021/08/15 05:21:57;;;;;;;2.93;2.73;;;;;;;22.92;92.77;97517.13;4988135;28;20366;-67
2021/08/15 05:24:24;;;;;;;3.00;2.80;;;;;;;22.90;92.80;97523.91;4988559;28;20227;-67
2021/08/15 05:26:50;;;;;;;2.87;2.67;;;;;;;22.90;92.88;97529.03;4988565;28;20688;-69
2021/08/15 05:29:17;;;;;;;2.90;2.70;;;;;;;22.90;93.22;97531.59;4988110;28;20293;-68
2021/08/15 05:31:44;;;;;;;3.00;2.80;;;;;;;22.90;92.98;97532.47;4988150;28;20234;-69
2021/08/15 05:34:10;;;;;;;3.20;3.00;;;;;;;22.90;92.61;97526.47;4988293;28;20305;-67
2021/08/15 05:36:37;;;;;;;2.80;2.60;;;;;;;22.91;92.84;97533.31;4988612;28;20676;-69
2021/08/15 05:39:05;;;;;;;3.00;2.80;;;;;;;22.91;92.99;97530.75;4986634;28;20209;-68
2021/08/15 05:41:31;;;;;;;3.30;3.00;;;;;;;22.90;93.04;97527.34;4980767;28;20269;-68
2021/08/15 05:43:58;;;;;;;3.23;2.93;;;;;;;22.92;92.93;97529.94;4988414;28;20731;-63
2021/08/15 05:46:25;;;;;;;3.07;2.80;;;;;;;22.91;92.99;97523.94;4988046;28;20322;-67
2021/08/15 05:48:51;;;;;;;3.03;2.83;;;;;;;22.93;93.57;97518.84;4986442;28;20217;-67
2021/08/15 05:51:18;;;;;;;3.50;2.80;;;;;;;22.92;92.90;97517.97;4985973;28;20298;-69
2021/08/15 05:53:44;;;;;;;3.33;3.07;;;;;;;22.92;92.96;97512.00;4985671;28;20325;-67
2021/08/15 05:56:12;;;;;;;3.00;2.80;;;;;;;22.93;93.08;97513.72;4984745;28;20326;-66
2021/08/15 05:58:39;;;;;;;3.20;2.90;;;;;;;22.89;92.66;97506.81;4988336;28;20318;-67
2021/08/15 06:01:06;;;;;;;3.63;2.90;;;;;;;22.93;92.94;97513.72;4985658;28;20234;-67
2021/08/15 06:03:33;;;;;;;3.00;2.80;;;;;;;22.94;92.95;97505.19;5085023;23;20686;-65
2021/08/15 06:05:59;;;;;;;3.30;3.00;;;;;;;22.90;92.95;97504.28;4987594;28;20241;-62
2021/08/15 06:08:26;;;;;;;3.00;2.80;;;;;;;22.95;92.82;97512.06;4987453;28;20280;-64
2021/08/15 06:10:53;;;;;;;2.97;2.77;;;;;;;22.86;92.96;97497.31;4989275;28;20230;-61
2021/08/15 06:13:20;;;;;;;2.90;2.70;;;;;;;22.95;92.89;97507.78;4982869;28;20690;-64
2021/08/15 06:15:47;;;;;;;3.00;2.80;;;;;;;22.94;92.62;97513.75;4988303;28;20241;-62
2021/08/15 06:18:16;;;;;;;3.17;2.87;;;;;;;22.90;93.11;97503.41;4988508;28;20431;-65
2021/08/15 06:20:43;;;;;;;3.10;2.80;;;;;;;22.95;92.90;97509.50;4983455;28;20245;-65
2021/08/15 06:23:09;;;;;;;3.50;3.00;;;;;;;22.95;93.12;97512.06;4979554;28;20261;-63
2021/08/15 06:25:36;;;;;;;3.10;2.90;;;;;;;22.95;92.84;97504.38;4985341;28;20207;-62
2021/08/15 06:28:03;;;;;;;3.10;2.80;;;;;;;22.90;92.85;97499.16;4988693;28;20321;-61
2021/08/15 06:30:29;;;;;;;3.03;2.83;;;;;;;22.95;92.79;97507.78;4986971;28;20238;-64
2021/08/15 06:32:56;;;;;;;2.87;2.67;;;;;;;22.95;92.89;97509.50;4988305;28;20786;-61
2021/08/15 06:35:25;;;;;;;3.50;3.20;;;;;;;22.95;92.92;97509.50;4987491;28;20203;-62
2021/08/15 06:37:52;;;;;;;3.73;2.63;;;;;;;22.95;92.99;97512.06;4988650;28;20317;-63
2021/08/15 06:40:20;;;;;;;2.80;2.60;;;;;;;22.95;92.93;97510.34;4986816;28;20346;-61
2021/08/15 06:42:46;;;;;;;3.10;2.90;;;;;;;22.95;92.73;97505.22;4987014;28;20246;-63
2021/08/15 06:45:14;;;;;;;2.83;2.63;;;;;;;22.80;93.05;97480.97;4986372;28;20202;-62
2021/08/15 06:47:40;;;;;;;2.90;2.70;;;;;;;22.77;93.34;97475.75;4994987;28;20214;-62
2021/08/15 06:50:07;;;;;;;2.90;2.70;;;;;;;22.79;92.85;97474.97;4987156;28;20313;-62
2021/08/15 06:52:34;;;;;;;3.03;2.83;;;;;;;22.96;92.83;97509.53;4976793;28;20322;-61
2021/08/15 06:55:03;;;;;;;3.33;3.07;;;;;;;22.96;93.03;97503.53;4976236;28;20270;-63
2021/08/15 06:57:29;;;;;;;2.83;2.63;;;;;;;22.92;92.94;97494.06;4986551;28;20294;-62
2021/08/15 06:59:56;;;;;;;3.30;3.00;;;;;;;22.96;92.94;97501.84;4983759;28;20234;-63
2021/08/15 07:02:22;;;;;;;2.83;2.60;;;;;;;22.96;92.53;97506.09;4992009;28;20320;-61
2021/08/15 07:04:49;;;;;;;3.13;2.93;;;;;;;22.97;92.93;97498.44;4983960;28;20329;-65
2021/08/15 07:07:16;;;;;;;2.93;2.73;;;;;;;22.96;92.94;97496.72;4992237;28;20250;-63
2021/08/15 07:09:42;;;;;;;2.70;2.50;;;;;;;22.97;93.07;97497.56;4992617;28;20317;-61
2021/08/15 07:12:09;;;;;;;3.10;2.90;;;;;;;22.92;93.13;97482.09;4988947;28;20257;-63
2021/08/15 07:14:37;;;;;;;3.00;2.80;;;;;;;22.95;93.19;97489.84;4987279;28;20261;-61
2021/08/15 07:17:04;;;;;;;3.17;2.60;;;;;;;22.89;93.13;97479.44;4992009;28;20226;-62
2021/08/15 07:19:31;;;;;;;2.90;2.60;;;;;;;22.94;93.14;97487.25;4992056;28;20682;-61
2021/08/15 07:21:57;;;;;;;3.07;2.80;;;;;;;22.93;93.27;97488.09;4990072;28;20294;-62
2021/08/15 07:24:24;;;;;;;3.17;2.87;;;;;;;22.87;93.09;97476.00;4992728;28;20758;-64
2021/08/15 07:26:52;;;;;;;3.20;2.90;;;;;;;22.92;93.32;97494.91;5006862;28;20736;-64
2021/08/15 07:29:23;;;;;;;2.90;2.70;;;;;;;22.92;93.29;97496.63;4991778;28;20290;-63
2021/08/15 07:31:50;;;;;;;3.10;2.90;;;;;;;22.68;93.25;97445.66;4984195;28;20207;-63
2021/08/15 07:34:16;;;;;;;2.73;2.50;;;;;;;22.92;93.48;97488.94;4991516;28;20744;-62
2021/08/15 07:36:43;;;;;;;3.20;3.00;;;;;;;22.92;93.33;97494.06;4991328;28;20389;-62
2021/08/15 07:39:09;;;;;;;3.03;2.83;;;;;;;22.93;93.15;97494.09;4990073;28;20229;-62
2021/08/15 07:41:36;;;;;;;2.90;2.60;;;;;;;22.94;93.49;97489.81;4991401;28;20207;-61
2021/08/15 07:44:03;;;;;;;3.30;3.00;;;;;;;22.94;93.35;97498.38;4991735;28;20254;-64
2021/08/15 07:46:29;;;;;;;2.90;2.70;;;;;;;22.93;93.35;97504.34;4991456;28;20297;-61
2021/08/15 07:48:57;;;;;;;3.00;2.80;;;;;;;22.36;93.19;97395.34;4989981;28;20238;-63
2021/08/15 07:51:24;;;;;;;2.80;2.60;;;;;;;22.96;93.25;97501.84;4987094;28;20291;-61
2021/08/15 07:53:51;;;;;;;3.17;2.87;;;;;;;22.91;93.22;97487.19;4979997;28;20333;-63
2021/08/15 07:56:17;;;;;;;3.27;2.97;;;;;;;22.96;93.30;97500.97;4982373;28;20692;-61
2021/08/15 07:58:44;;;;;;;2.77;2.57;;;;;;;22.96;93.13;97494.16;4985036;28;21604;-62
2021/08/15 08:01:10;;;;;;;3.03;2.83;;;;;;;22.97;93.16;97501.00;4986088;28;20298;-60
2021/08/15 08:03:38;;;;;;;2.53;2.33;;;;;;;22.96;93.21;97499.28;4989457;28;20238;-60
2021/08/15 08:06:05;;;;;;;3.17;2.97;;;;;;;22.95;93.15;97494.13;4989580;28;20202;-60
2021/08/15 08:08:31;;;;;;;2.60;2.40;;;;;;;22.98;93.23;97494.19;4990046;28;20195;-61
2021/08/15 08:10:58;;;;;;;2.80;2.60;;;;;;;22.93;93.16;97483.84;4988233;28;20249;-62
2021/08/15 08:13:26;;;;;;;2.70;2.50;;;;;;;22.94;93.09;97492.38;4986557;28;20226;-61
2021/08/15 08:15:53;;;;;;;3.23;2.77;;;;;;;22.99;93.27;97490.78;4986359;28;20207;-63
2021/08/15 08:18:20;;;;;;;4.43;2.60;;;;;;;22.98;93.33;97486.50;4983611;28;20231;-62
2021/08/15 08:20:46;;;;;;;3.30;2.50;;;;;;;22.94;93.04;97480.44;4988494;28;20224;-62
2021/08/15 08:23:14;;;;;;;2.70;2.50;;;;;;;22.95;93.20;97476.19;4958208;28;20325;-62
2021/08/15 08:25:44;;;;;;;2.93;2.73;;;;;;;22.88;93.28;97466.59;4978394;28;20239;-65
2021/08/15 08:28:11;;;;;;;4.93;2.90;;;;;;;22.95;93.38;97477.03;4974645;28;20271;-61
2021/08/15 08:30:38;;;;;;;2.77;2.57;;;;;;;22.96;93.36;97477.91;4973736;28;20850;-60
2021/08/15 08:33:04;;;;;;;3.03;2.83;;;;;;;22.99;93.66;97481.41;4956334;28;20250;-60
2021/08/15 08:35:31;;;;;;;3.07;2.87;;;;;;;23.00;93.31;97480.56;4974467;28;20306;-65
2021/08/15 08:37:57;;;;;;;2.80;2.60;;;;;;;22.95;93.40;97471.06;4976717;28;20675;-61
2021/08/15 08:40:24;;;;;;;9.67;2.87;;;;;;;22.98;93.47;97479.66;4957274;28;20207;-61
2021/08/15 08:42:51;;;;;;;4.17;2.80;;;;;;;23.01;93.55;97478.88;4976421;28;20338;-67
2021/08/15 08:45:21;;;;;;;6.73;3.10;;;;;;;22.97;93.58;97460.00;4976596;28;20206;-62
2021/08/15 08:47:48;;;;;;;5.03;3.27;;;;;;;23.01;93.64;97468.63;4975440;28;20290;-62
2021/08/15 08:50:15;;;;;;;6.63;3.40;;;;;;;23.00;93.73;97460.06;4976850;28;20230;-61
2021/08/15 08:52:42;;;;;;;4.33;3.10;;;;;;;22.98;93.94;97460.88;4973652;28;20848;-61
2021/08/15 08:55:09;;;;;;;9.23;3.23;;;;;;;22.99;93.79;97471.16;4980594;28;20234;-65
2021/08/15 08:57:36;;;;;;;8.20;3.10;;;;;;;23.00;93.63;97466.88;4989404;28;20285;-60
2021/08/15 09:00:03;;;;;;;8.03;3.40;;;;;;;22.95;93.89;97460.81;4990066;28;20954;-64
2021/08/15 09:02:30;;;;;;;11.83;3.73;;;;;;;23.00;93.88;97478.00;4991415;28;20654;-62
2021/08/15 09:04:57;;;;;;;5.93;3.23;;;;;;;23.01;94.02;97472.03;4989629;28;20203;-63
2021/08/15 09:07:23;;;;;;;12.00;3.87;;;;;;;23.02;94.14;97470.34;4991112;28;20637;-62
2021/08/15 09:09:57;;;;;;;9.10;3.20;;;;;;;23.01;94.25;97471.19;4989836;28;20905;-63
2021/08/15 09:12:36;;;;;;;6.33;3.37;;;;;;;23.01;94.20;97463.50;4978187;28;20274;-59
2021/08/15 09:15:13;;;;;;;7.90;3.53;;;;;;;23.01;94.36;97464.34;4985332;28;20314;-61
2021/08/15 09:17:40;;;;;;;12.20;3.90;;;;;;;23.00;94.44;97462.63;4990317;28;20237;-61
2021/08/15 09:20:08;;;;;;;8.70;3.67;;;;;;;22.92;94.31;97443.66;4987471;28;20699;-61
2021/08/15 09:22:35;;;;;;;4.70;3.40;;;;;;;22.98;94.34;97451.47;4988629;28;20313;-59
2021/08/15 09:25:11;;;;;;;9.10;3.60;;;;;;;22.94;94.47;97443.69;4987736;28;20290;-65
2021/08/15 09:27:54;;;;;;;5.33;3.60;;;;;;;22.95;94.66;97443.72;4989638;28;20635;-60
2021/08/15 09:30:26;;;;;;;8.63;3.40;;;;;;;22.95;94.58;97440.31;4989068;28;20213;-62
2021/08/15 09:33:06;;;;;;;9.30;3.47;;;;;;;22.76;94.56;97403.16;4989259;28;20293;-63
2021/08/15 09:35:35;;;;;;;8.23;3.30;;;;;;;22.96;94.54;97436.91;4979707;28;20239;-65
2021/08/15 09:38:12;;;;;;;7.73;3.43;;;;;;;22.95;94.64;97433.47;4986932;28;20230;-63
2021/08/15 09:40:45;;;;;;;7.37;3.50;;;;;;;22.89;94.68;97417.94;4991655;28;20217;-61
2021/08/15 09:43:19;;;;;;;10.00;3.63;;;;;;;22.96;94.68;97418.97;4978508;28;20254;-62
2021/08/15 09:45:46;;;;;;;6.83;3.73;;;;;;;22.96;94.57;97419.84;4973486;28;20290;-64
2021/08/15 09:48:42;;;;;;;8.23;3.70;;;;;;;22.96;94.59;97422.41;4980178;28;20289;-59
2021/08/15 09:51:15;;;;;;;6.20;2.80;;;;;;;22.97;94.69;97430.94;4987583;28;20207;-63
2021/08/15 09:53:43;;;;;;;6.80;3.63;;;;;;;22.97;94.55;97428.38;4981002;28;20778;-65
2021/08/15 09:56:09;;;;;;;6.73;3.50;;;;;;;22.97;94.75;97434.38;4982272;28;20245;-61
2021/08/15 09:58:36;;;;;;;6.80;3.57;;;;;;;22.97;94.71;97434.38;4989366;28;20233;-65
2021/08/15 10:01:04;;;;;;;6.77;3.60;;;;;;;22.97;94.57;97429.25;4989455;28;20665;-62
2021/08/15 10:03:31;;;;;;;8.13;3.90;;;;;;;22.98;94.55;97430.97;4989376;28;20230;-61
2021/08/15 10:05:58;;;;;;;5.70;3.53;;;;;;;22.98;94.66;97432.69;4988248;28;20683;-65
2021/08/15 10:08:25;;;;;;;7.13;3.10;;;;;;;22.98;94.64;97432.69;5001963;28;20206;-60
2021/08/15 10:10:52;;;;;;;6.97;3.73;;;;;;;22.98;94.66;97425.84;4990109;28;20243;-61
2021/08/15 10:13:18;;;;;;;6.63;3.60;;;;;;;22.97;94.77;97419.00;4995559;28;20574;-61
2021/08/15 10:16:14;;;;;;;5.30;3.30;;;;;;;22.98;94.48;97419.88;4986624;28;20298;-65
2021/08/15 10:18:41;;;;;;;7.53;3.17;;;;;;;22.98;94.61;97417.31;4972837;28;20665;-61
2021/08/15 10:21:13;;;;;;;5.23;3.50;;;;;;;22.98;94.60;97407.91;4967179;28;20293;-61
2021/08/15 10:23:42;;;;;;;4.47;3.23;;;;;;;22.98;94.55;97405.34;4989334;28;20254;-60
2021/08/15 10:26:41;;;;;;;8.57;3.80;;;;;;;22.99;94.66;97398.53;4972234;28;20243;-59
2021/08/15 10:29:32;;;;;;;5.60;3.43;;;;;;;22.99;94.70;97396.84;4979715;28;20236;-65
2021/08/15 10:32:08;;;;;;;8.93;3.60;;;;;;;22.99;94.99;97393.41;4987929;28;20294;-62
2021/08/15 10:34:50;;;;;;;7.00;3.50;;;;;;;22.99;95.49;97389.16;4987232;28;20226;-62
2021/08/15 10:37:23;;;;;;;9.97;3.70;;;;;;;23.00;95.99;97382.31;4990229;28;20730;-62
2021/08/15 10:39:50;;;;;;;15.30;3.73;;;;;;;22.99;96.29;97378.91;4989035;28;20262;-60
2021/08/15 10:42:38;;;;;;;7.67;3.53;;;;;;;23.00;96.31;97375.50;4989486;28;20223;-63
2021/08/15 10:45:07;;;;;;;13.17;3.77;;;;;;;23.03;96.43;97384.94;4989133;28;20291;-62
2021/08/15 10:47:35;;;;;;;7.30;3.47;;;;;;;23.02;96.43;97372.97;4988141;28;20273;-61
2021/08/15 10:50:02;;;;;;;15.67;4.13;;;;;;;23.03;96.74;97369.56;4987619;28;20210;-65
2021/08/15 10:52:34;;;;;;;17.23;4.50;;;;;;;23.05;96.66;97384.16;4975276;28;20504;-60
2021/08/15 10:55:04;;;;;;;16.87;4.73;;;;;;;23.07;96.14;97368.81;4975679;28;20822;-64
2021/08/15 10:57:39;;;;;;;7.13;4.13;;;;;;;23.08;96.06;97360.25;4973015;28;20661;-60
2021/08/15 11:00:30;;;;;;;13.60;4.00;;;;;;;23.09;95.86;97355.16;4976718;28;20245;-65
2021/08/15 11:03:22;;;;;;;9.50;3.87;;;;;;;23.10;95.60;97349.22;4971885;28;20278;-61
2021/08/15 11:08:34;;;;;;;15.20;3.67;;;;;;;23.11;95.41;97350.94;5609128;22;20246;-64
2021/08/15 11:11:04;;;;;;;10.77;3.40;;;;;;;23.12;95.37;97341.56;4961434;28;20325;-66
2021/08/15 11:13:33;;;;;;;9.37;3.97;;;;;;;23.11;95.29;97339.81;4971013;28;20298;-66
2021/08/15 11:16:25;;;;;;;7.87;3.83;;;;;;;23.11;95.27;97333.00;4971237;28;20294;-66
2021/08/15 11:19:07;;;;;;;12.93;3.87;;;;;;;23.11;95.22;97325.31;4972572;28;20695;-66
2021/08/15 11:22:10;;;;;;;11.03;4.17;;;;;;;23.10;95.13;97323.59;4997587;23;20222;-60
2021/08/15 11:24:37;;;;;;;11.57;4.10;;;;;;;23.09;95.14;97324.41;4953489;28;20235;-61
2021/08/15 11:27:04;;;;;;;8.23;4.17;;;;;;;23.03;95.05;97305.47;4962859;28;20290;-62
2021/08/15 11:29:31;;;;;;;6.33;3.60;;;;;;;23.05;95.06;97308.94;4941146;28;20571;-61
2021/08/15 11:31:58;;;;;;;7.70;3.30;;;;;;;23.01;95.24;97302.88;4968389;28;20223;-61
2021/08/15 11:34:25;;;;;;;6.80;3.63;;;;;;;23.06;95.64;97305.53;4954882;28;20259;-61
2021/08/15 11:37:04;;;;;;;5.80;3.57;;;;;;;23.06;95.31;97302.97;4957608;28;20209;-60
2021/08/15 11:39:36;;;;;;;6.77;3.53;;;;;;;23.04;95.39;97294.41;4961882;28;20228;-61
2021/08/15 11:42:07;;;;;;;6.80;4.10;;;;;;;23.04;95.39;97295.25;4956269;28;20228;-61